Time;durP1;ratioP1;P1;durP2;ratioP2;P2;SDS_P1;SDS_P2;PMS_P1;PMS_P2;Temp;Humidity;BMP_temperature;BMP_pressure;BME280_temperature;BME280_humidity;BME280_pressure;Samples;Min_cycle;Max_cycle;Signal;HPM_P1;HPM_P2
2022/08/28 00:00:29;;;;;;;7.18;2.40;;;18.30;77.60;;;;;;4958440;28;20537;-85
2022/08/28 00:02:55;;;;;;;8.70;2.40;;;18.20;77.60;;;;;;4968192;28;20045;-84
2022/08/28 00:05:21;;;;;;;9.13;2.13;;;18.20;77.70;;;;;;4963009;28;20040;-84
2022/08/28 00:07:47;;;;;;;7.30;2.72;;;18.10;76.90;;;;;;4972108;28;20449;-83
2022/08/28 00:10:15;;;;;;;11.65;3.22;;;18.10;76.70;;;;;;4972322;28;20034;-83
2022/08/28 00:12:40;;;;;;;17.88;3.20;;;18.00;76.90;;;;;;4971876;28;20037;-86
2022/08/28 00:15:08;;;;;;;5.90;2.22;;;18.00;77.70;;;;;;4986059;28;20037;-84
2022/08/28 00:17:34;;;;;;;6.75;2.55;;;17.90;78.40;;;;;;4972760;28;20026;-84
2022/08/28 00:20:00;;;;;;;8.10;2.72;;;17.80;77.70;;;;;;4960439;28;20515;-83
2022/08/28 00:22:25;;;;;;;5.78;2.42;;;17.80;77.10;;;;;;4967695;28;20042;-84
2022/08/28 00:24:51;;;;;;;6.18;2.47;;;17.70;77.60;;;;;;4966245;28;20743;-84
2022/08/28 00:30:00;;;;;;;8.82;2.55;;;17.60;77.80;;;;;;4989642;28;20128;-84
2022/08/28 00:32:27;;;;;;;6.10;3.08;;;17.50;78.30;;;;;;4968113;28;20119;-85
2022/08/28 00:34:52;;;;;;;6.30;3.03;;;17.50;78.80;;;;;;4973275;28;20371;-85
2022/08/28 00:37:18;;;;;;;10.43;3.38;;;17.40;78.50;;;;;;4970717;28;20044;-85
2022/08/28 00:39:43;;;;;;;12.43;3.63;;;17.40;79.50;;;;;;4968844;28;20045;-85
2022/08/28 00:42:09;;;;;;;8.98;3.13;;;17.40;78.30;;;;;;4973592;28;20112;-85
2022/08/28 00:44:35;;;;;;;11.80;3.03;;;17.30;78.90;;;;;;4958487;28;20034;-83
2022/08/28 00:47:01;;;;;;;11.13;4.03;;;17.20;79.40;;;;;;4972152;28;20397;-84
2022/08/28 00:49:29;;;;;;;11.38;3.35;;;17.20;79.70;;;;;;4982492;28;20124;-84
2022/08/28 00:52:04;;;;;;;9.70;3.65;;;17.20;79.00;;;;;;4989319;28;20034;-82
2022/08/28 00:54:52;;;;;;;10.67;3.53;;;17.20;79.00;;;;;;4959402;28;20026;-86
2022/08/28 00:57:27;;;;;;;11.52;3.55;;;17.10;79.20;;;;;;4989608;28;20113;-85
2022/08/28 00:59:52;;;;;;;9.50;3.38;;;17.10;79.90;;;;;;4969728;28;20033;-85
2022/08/28 01:02:18;;;;;;;11.93;3.08;;;17.00;80.00;;;;;;4955863;28;20424;-84
2022/08/28 01:04:44;;;;;;;10.02;3.20;;;17.00;78.90;;;;;;4966525;28;20076;-84
2022/08/28 01:07:11;;;;;;;12.75;3.60;;;17.00;79.30;;;;;;4971012;28;20076;-85
2022/08/28 01:09:40;;;;;;;8.13;3.38;;;16.90;80.00;;;;;;4950188;28;20034;-85
2022/08/28 01:12:08;;;;;;;13.65;3.78;;;16.90;79.20;;;;;;4959055;28;20038;-85
2022/08/28 01:14:35;;;;;;;8.32;3.15;;;16.90;79.70;;;;;;4969824;28;20029;-84
2022/08/28 01:17:01;;;;;;;11.07;3.60;;;16.80;80.20;;;;;;4949973;28;20026;-83
2022/08/28 01:19:56;;;;;;;7.85;3.33;;;16.70;80.30;;;;;;4970717;28;20035;-84
2022/08/28 01:22:21;;;;;;;10.68;3.45;;;16.70;80.50;;;;;;4974026;28;20104;-83
2022/08/28 01:24:47;;;;;;;7.90;3.60;;;16.70;81.40;;;;;;5001086;28;20030;-87
2022/08/28 01:27:13;;;;;;;22.25;5.20;;;16.60;81.40;;;;;;4970678;28;20042;-85
2022/08/28 01:29:38;;;;;;;10.38;3.70;;;16.60;82.00;;;;;;4957778;28;20442;-84
2022/08/28 01:32:04;;;;;;;13.85;3.97;;;16.50;80.20;;;;;;4958995;28;20025;-85
2022/08/28 01:34:30;;;;;;;13.93;3.70;;;16.40;81.60;;;;;;4978697;28;20037;-79
2022/08/28 01:36:56;;;;;;;11.23;3.80;;;16.30;81.90;;;;;;4958044;28;20054;-78
2022/08/28 01:39:22;;;;;;;12.90;3.97;;;16.30;82.70;;;;;;4970329;28;20069;-78
2022/08/28 01:41:50;;;;;;;8.65;3.63;;;16.30;83.70;;;;;;4970502;28;20489;-78
2022/08/28 01:44:23;;;;;;;7.78;3.85;;;16.20;82.70;;;;;;4969762;28;20038;-78
2022/08/28 01:46:49;;;;;;;12.27;3.85;;;16.20;83.00;;;;;;4991802;28;20026;-79
2022/08/28 01:49:15;;;;;;;9.77;3.15;;;16.10;81.70;;;;;;4975694;28;20042;-78
2022/08/28 01:51:41;;;;;;;13.30;3.63;;;16.10;82.80;;;;;;4973319;28;20049;-78
2022/08/28 01:54:07;;;;;;;9.82;3.58;;;16.00;82.00;;;;;;4958669;28;20188;-78
2022/08/28 01:56:33;;;;;;;11.68;3.58;;;16.00;83.80;;;;;;4989440;28;20526;-79
2022/08/28 01:59:00;;;;;;;12.60;3.65;;;15.90;82.50;;;;;;4976869;28;20037;-78
2022/08/28 02:01:25;;;;;;;14.57;4.03;;;15.90;83.50;;;;;;4974755;28;20026;-78
2022/08/28 02:03:54;;;;;;;10.55;4.82;;;15.90;83.60;;;;;;4976826;28;20060;-77
2022/08/28 02:06:20;;;;;;;13.85;4.40;;;15.80;85.00;;;;;;4957484;28;20041;-78
2022/08/28 02:08:46;;;;;;;18.25;4.00;;;15.70;86.20;;;;;;4961094;28;20120;-78
2022/08/28 02:11:12;;;;;;;12.32;3.97;;;15.70;86.40;;;;;;4984397;28;20547;-77
2022/08/28 02:13:38;;;;;;;10.95;4.07;;;15.60;87.10;;;;;;4976730;28;20038;-78
2022/08/28 02:16:05;;;;;;;13.35;4.35;;;15.60;87.90;;;;;;4960437;28;20397;-78
2022/08/28 02:18:30;;;;;;;8.82;3.55;;;15.60;85.90;;;;;;4961056;28;20127;-77
2022/08/28 02:20:56;;;;;;;11.65;4.05;;;15.60;85.30;;;;;;4986050;28;20657;-78
2022/08/28 02:23:21;;;;;;;14.68;4.47;;;15.50;86.60;;;;;;4972742;28;20080;-77
2022/08/28 02:25:50;;;;;;;10.05;3.42;;;15.60;87.60;;;;;;4973932;28;20117;-78
2022/08/28 02:28:15;;;;;;;13.73;3.40;;;15.50;86.70;;;;;;4973171;28;20034;-78
2022/08/28 02:30:41;;;;;;;16.05;3.70;;;15.50;88.60;;;;;;4983706;28;20512;-77
2022/08/28 02:33:06;;;;;;;15.13;4.07;;;15.50;90.00;;;;;;4961018;28;20038;-78
2022/08/28 02:35:32;;;;;;;12.45;4.22;;;15.40;89.60;;;;;;4971681;28;20053;-78
2022/08/28 02:37:57;;;;;;;14.05;4.15;;;15.40;88.60;;;;;;4968370;28;20441;-78
2022/08/28 02:40:23;;;;;;;15.50;4.80;;;15.30;90.30;;;;;;4974221;28;20080;-77
2022/08/28 02:42:49;;;;;;;18.90;4.20;;;15.40;90.50;;;;;;4985248;28;20092;-77
2022/08/28 02:45:15;;;;;;;8.85;3.58;;;15.30;90.60;;;;;;4980619;28;20048;-78
2022/08/28 02:47:42;;;;;;;11.32;4.25;;;15.30;90.10;;;;;;4957490;28;20504;-77
2022/08/28 02:50:08;;;;;;;13.95;4.18;;;15.20;90.20;;;;;;4973915;28;20041;-79
2022/08/28 02:52:34;;;;;;;8.35;3.08;;;15.20;90.60;;;;;;4982849;28;20084;-77
2022/08/28 02:55:00;;;;;;;15.73;4.63;;;15.20;90.80;;;;;;4968335;28;20026;-77
2022/08/28 02:57:26;;;;;;;18.83;4.93;;;15.10;90.60;;;;;;4975277;28;20042;-78
2022/08/28 02:59:51;;;;;;;13.95;4.03;;;15.10;91.30;;;;;;4970161;28;20084;-85
2022/08/28 03:02:17;;;;;;;10.73;4.30;;;15.00;91.70;;;;;;4959443;28;20037;-84
2022/08/28 03:04:43;;;;;;;21.65;4.30;;;15.00;92.20;;;;;;4969620;28;20030;-85
2022/08/28 03:07:12;;;;;;;13.88;4.55;;;15.00;92.30;;;;;;4952383;28;20033;-85
2022/08/28 03:09:40;;;;;;;16.70;4.40;;;15.00;92.60;;;;;;4974681;28;20026;-84
2022/08/28 03:12:06;;;;;;;19.65;4.22;;;14.90;93.00;;;;;;4986550;28;20383;-85
2022/08/28 03:14:31;;;;;;;12.88;4.35;;;14.90;93.70;;;;;;4975655;28;20030;-84
2022/08/28 03:16:57;;;;;;;10.77;4.35;;;14.90;93.60;;;;;;4992027;28;20037;-85
2022/08/28 03:19:23;;;;;;;15.88;3.97;;;14.90;92.70;;;;;;4969830;28;25955;-84
2022/08/28 03:21:49;;;;;;;9.98;3.75;;;14.80;93.70;;;;;;4982850;28;20113;-83
2022/08/28 03:24:14;;;;;;;16.40;4.10;;;14.80;93.80;;;;;;4968730;28;20520;-82
2022/08/28 03:26:40;;;;;;;10.60;4.30;;;14.80;93.90;;;;;;4977954;28;20891;-85
2022/08/28 03:29:05;;;;;;;12.75;4.22;;;14.90;94.20;;;;;;4958403;28;20084;-84
2022/08/28 03:31:32;;;;;;;14.10;4.38;;;14.80;94.70;;;;;;4966678;28;20521;-84
2022/08/28 03:33:58;;;;;;;14.35;3.67;;;14.80;95.30;;;;;;4975773;28;20029;-85
2022/08/28 03:36:25;;;;;;;16.10;4.43;;;14.80;94.60;;;;;;4971201;28;20262;-85
2022/08/28 03:38:51;;;;;;;10.25;4.40;;;14.80;95.10;;;;;;4967361;28;20204;-85
2022/08/28 03:41:18;;;;;;;12.88;4.22;;;14.80;95.20;;;;;;4982732;28;20506;-85
2022/08/28 03:43:44;;;;;;;16.17;4.50;;;14.80;94.80;;;;;;4987217;28;20402;-84
2022/08/28 03:46:13;;;;;;;13.57;3.67;;;14.70;95.00;;;;;;4958745;28;20034;-82
2022/08/28 03:48:39;;;;;;;11.93;4.07;;;14.80;95.40;;;;;;4972750;28;20133;-80
2022/08/28 03:51:08;;;;;;;19.23;4.50;;;14.80;95.10;;;;;;4950164;28;21173;-82
2022/08/28 03:53:34;;;;;;;12.38;4.97;;;14.80;95.80;;;;;;4967036;28;20030;-85
2022/08/28 03:56:00;;;;;;;17.00;4.15;;;14.80;95.90;;;;;;4971911;28;20040;-84
2022/08/28 03:58:26;;;;;;;14.55;5.28;;;14.80;96.20;;;;;;4965306;28;20031;-85
2022/08/28 04:00:51;;;;;;;10.02;3.75;;;14.90;95.90;;;;;;4970122;28;20568;-84
2022/08/28 04:03:17;;;;;;;9.55;3.78;;;14.80;96.50;;;;;;4978097;28;20045;-85
2022/08/28 04:05:43;;;;;;;11.77;3.70;;;14.90;96.30;;;;;;4968835;28;20034;-84
2022/08/28 04:08:14;;;;;;;9.60;3.90;;;14.80;95.80;;;;;;4985272;28;20025;-85
2022/08/28 04:10:41;;;;;;;13.73;3.90;;;14.90;96.40;;;;;;4970496;28;20799;-85
2022/08/28 04:13:07;;;;;;;7.15;3.50;;;14.90;96.30;;;;;;4975071;28;20038;-84
2022/08/28 04:15:32;;;;;;;11.77;4.40;;;14.90;96.40;;;;;;4971432;28;20550;-85
2022/08/28 04:17:59;;;;;;;11.77;4.13;;;14.90;95.70;;;;;;4967680;28;20092;-84
2022/08/28 04:20:25;;;;;;;13.98;3.65;;;14.90;96.60;;;;;;4963471;28;20034;-83
2022/08/28 04:22:50;;;;;;;9.27;4.13;;;14.90;96.10;;;;;;4983137;28;20545;-84
2022/08/28 04:25:16;;;;;;;10.32;3.63;;;14.80;96.10;;;;;;4970393;28;20030;-84
2022/08/28 04:27:42;;;;;;;16.88;3.70;;;14.80;96.20;;;;;;4988416;28;20042;-83
2022/08/28 04:30:08;;;;;;;13.70;4.40;;;14.80;96.70;;;;;;4959503;28;20037;-82
2022/08/28 04:32:34;;;;;;;14.23;4.00;;;14.80;96.30;;;;;;4985239;28;20088;-83
2022/08/28 04:35:00;;;;;;;15.88;3.65;;;14.80;96.40;;;;;;4961151;28;20434;-78
2022/08/28 04:37:25;;;;;;;11.35;3.70;;;14.80;96.40;;;;;;4963633;28;20042;-77
2022/08/28 04:39:51;;;;;;;14.60;3.63;;;14.80;96.80;;;;;;4984909;28;20044;-78
2022/08/28 04:42:17;;;;;;;8.98;3.65;;;14.80;97.20;;;;;;4980229;28;20037;-78
2022/08/28 04:44:43;;;;;;;15.07;4.00;;;14.70;96.20;;;;;;4966321;28;20034;-77
2022/08/28 04:47:08;;;;;;;10.75;3.72;;;14.70;96.40;;;;;;4957474;28;20513;-77
2022/08/28 04:49:34;;;;;;;10.48;3.83;;;14.60;96.50;;;;;;4965433;28;20042;-77
2022/08/28 04:52:00;;;;;;;11.73;3.35;;;14.60;97.50;;;;;;4952499;28;20025;-78
2022/08/28 04:54:26;;;;;;;12.68;3.70;;;14.70;96.60;;;;;;4976838;28;20505;-77
2022/08/28 04:56:51;;;;;;;11.60;3.03;;;14.50;96.60;;;;;;4968127;28;20030;-78
2022/08/28 04:59:17;;;;;;;11.55;4.20;;;14.50;96.50;;;;;;4980628;28;20026;-77
2022/08/28 05:01:43;;;;;;;15.00;3.20;;;14.50;97.30;;;;;;4973748;28;20538;-78
2022/08/28 05:04:09;;;;;;;11.45;3.75;;;14.50;96.80;;;;;;4966348;28;20092;-77
2022/08/28 05:06:35;;;;;;;16.58;4.15;;;14.40;97.20;;;;;;4976701;28;20134;-77
2022/08/28 05:09:01;;;;;;;15.75;3.65;;;14.40;97.40;;;;;;4981125;28;20022;-77
2022/08/28 05:11:28;;;;;;;13.80;3.70;;;14.40;97.40;;;;;;4947638;28;20030;-78
2022/08/28 05:13:54;;;;;;;11.48;3.03;;;14.40;97.20;;;;;;4971797;28;20081;-78
2022/08/28 05:16:20;;;;;;;11.40;3.55;;;14.40;98.00;;;;;;4962891;28;20154;-79
2022/08/28 05:18:46;;;;;;;12.63;4.53;;;14.40;97.40;;;;;;4968508;28;20082;-79
2022/08/28 05:21:19;;;;;;;12.30;4.18;;;14.40;97.80;;;;;;4971082;28;20033;-77
2022/08/28 05:23:45;;;;;;;10.82;3.42;;;14.50;98.60;;;;;;4990242;28;20038;-78
2022/08/28 05:26:11;;;;;;;9.73;3.30;;;14.50;98.40;;;;;;4961061;28;20120;-78
2022/08/28 05:28:38;;;;;;;14.27;3.63;;;14.60;98.90;;;;;;4988103;28;20509;-77
2022/08/28 05:31:11;;;;;;;15.80;3.92;;;14.70;98.20;;;;;;4975049;28;20033;-77
2022/08/28 05:33:36;;;;;;;13.23;3.80;;;14.80;97.70;;;;;;4988303;28;20061;-77
2022/08/28 05:36:05;;;;;;;14.50;3.70;;;14.90;98.30;;;;;;4982621;28;20037;-77
2022/08/28 05:38:31;;;;;;;10.98;4.00;;;14.90;97.70;;;;;;4972892;28;20498;-77
2022/08/28 05:40:57;;;;;;;8.93;3.40;;;15.00;97.90;;;;;;4976905;28;20109;-77
2022/08/28 05:43:24;;;;;;;17.42;3.83;;;15.10;97.80;;;;;;4971017;28;20513;-77
2022/08/28 05:45:57;;;;;;;8.15;3.45;;;15.20;98.00;;;;;;4970522;28;20030;-78
2022/08/28 05:48:22;;;;;;;20.52;3.72;;;15.40;97.80;;;;;;4975481;28;20422;-77
2022/08/28 05:50:48;;;;;;;10.75;3.17;;;15.50;97.70;;;;;;4975739;28;20029;-77
2022/08/28 05:53:15;;;;;;;11.00;3.13;;;15.50;97.70;;;;;;4970038;28;20035;-77
2022/08/28 05:55:41;;;;;;;12.27;3.10;;;15.60;97.60;;;;;;4970601;28;20465;-77
2022/08/28 06:00:51;;;;;;;10.75;3.47;;;15.80;98.00;;;;;;4994544;28;20493;-78
2022/08/28 06:03:16;;;;;;;11.25;3.38;;;15.80;97.50;;;;;;4975337;28;20034;-77
2022/08/28 06:05:42;;;;;;;8.10;2.83;;;15.90;97.70;;;;;;4971868;28;20404;-78
2022/08/28 06:08:07;;;;;;;9.85;4.15;;;15.90;97.40;;;;;;4949308;28;20042;-78
2022/08/28 06:10:35;;;;;;;11.35;3.10;;;16.00;97.80;;;;;;4974556;28;20050;-79
2022/08/28 06:13:02;;;;;;;10.75;2.83;;;16.00;97.40;;;;;;4984020;28;20029;-78
2022/08/28 06:15:28;;;;;;;14.35;3.05;;;16.10;97.20;;;;;;4966495;28;20038;-78
2022/08/28 06:17:54;;;;;;;14.50;4.50;;;16.10;97.20;;;;;;4972485;28;20085;-79
2022/08/28 06:20:19;;;;;;;9.85;3.22;;;16.20;97.00;;;;;;4966357;28;20042;-78
2022/08/28 06:22:48;;;;;;;11.57;3.28;;;16.30;97.10;;;;;;4983644;28;20033;-78
2022/08/28 06:25:13;;;;;;;6.38;2.88;;;16.40;97.00;;;;;;4982924;28;20489;-79
2022/08/28 06:27:39;;;;;;;7.75;2.90;;;16.50;96.90;;;;;;4975604;28;20033;-81
2022/08/28 06:30:05;;;;;;;11.65;3.20;;;16.50;97.00;;;;;;4950004;28;20461;-79
2022/08/28 06:32:31;;;;;;;9.73;2.92;;;16.60;96.90;;;;;;4971880;28;20506;-79
2022/08/28 06:34:57;;;;;;;14.10;4.53;;;16.80;96.80;;;;;;4971698;28;20126;-80
2022/08/28 06:37:22;;;;;;;13.52;2.85;;;16.90;97.10;;;;;;4982947;28;20061;-79
2022/08/28 06:39:48;;;;;;;10.10;3.17;;;16.90;96.70;;;;;;4971945;28;20045;-79
2022/08/28 06:42:13;;;;;;;10.63;2.70;;;17.10;96.70;;;;;;4956009;28;20033;-80
2022/08/28 06:44:39;;;;;;;7.57;2.65;;;17.20;96.60;;;;;;4972713;28;20376;-80
2022/08/28 06:47:05;;;;;;;13.93;3.83;;;17.30;96.20;;;;;;4968117;28;20138;-80
2022/08/28 06:49:30;;;;;;;7.90;2.85;;;17.40;96.00;;;;;;4969402;28;20026;-79
2022/08/28 06:51:56;;;;;;;10.50;2.88;;;17.40;95.90;;;;;;4975544;28;20041;-78
2022/08/28 06:54:21;;;;;;;15.63;3.42;;;17.40;95.80;;;;;;4982921;28;20134;-79
2022/08/28 06:56:47;;;;;;;10.32;2.70;;;17.50;95.60;;;;;;4967523;28;20084;-79
2022/08/28 06:59:13;;;;;;;8.93;3.22;;;17.60;95.40;;;;;;4986844;28;20105;-78
2022/08/28 07:01:39;;;;;;;10.88;2.67;;;17.60;95.30;;;;;;4966868;28;20026;-81
2022/08/28 07:04:06;;;;;;;13.00;2.83;;;17.70;95.20;;;;;;4949275;28;20042;-79
2022/08/28 07:06:33;;;;;;;7.97;2.50;;;17.70;95.10;;;;;;4977786;28;20031;-79
2022/08/28 07:08:59;;;;;;;12.02;2.70;;;17.80;95.10;;;;;;4961215;28;20039;-79
2022/08/28 07:11:26;;;;;;;9.07;2.40;;;17.90;94.90;;;;;;4966430;28;20494;-79
2022/08/28 07:13:52;;;;;;;13.93;2.88;;;17.90;94.60;;;;;;4971844;28;20049;-78
2022/08/28 07:16:19;;;;;;;11.27;3.03;;;18.00;94.70;;;;;;4982960;28;20042;-79
2022/08/28 07:18:44;;;;;;;10.25;2.95;;;18.00;94.60;;;;;;4972911;28;20026;-78
2022/08/28 07:21:10;;;;;;;11.07;2.20;;;18.10;94.50;;;;;;4980028;28;20904;-78
2022/08/28 07:23:36;;;;;;;14.52;2.92;;;18.10;94.30;;;;;;4969621;28;20049;-79
2022/08/28 07:26:06;;;;;;;13.90;3.67;;;18.20;94.40;;;;;;4985072;28;20541;-79
2022/08/28 07:28:32;;;;;;;9.63;2.42;;;18.20;94.20;;;;;;4967666;28;20486;-79
2022/08/28 07:31:02;;;;;;;12.00;2.78;;;18.30;94.00;;;;;;4983779;28;20030;-78
2022/08/28 07:33:29;;;;;;;12.68;2.75;;;18.40;94.00;;;;;;4980256;28;20482;-78
2022/08/28 07:35:55;;;;;;;15.85;2.88;;;18.40;93.40;;;;;;4960436;28;20436;-79
2022/08/28 07:38:21;;;;;;;11.27;2.05;;;18.50;93.50;;;;;;4977488;28;20066;-78
2022/08/28 07:40:47;;;;;;;8.43;2.28;;;18.60;92.80;;;;;;4979773;28;20112;-78
2022/08/28 07:46:01;;;;;;;9.65;2.22;;;18.80;92.80;;;;;;4994853;28;20045;-79
2022/08/28 07:48:27;;;;;;;12.00;2.80;;;19.00;92.20;;;;;;4952676;28;20079;-79
2022/08/28 07:50:53;;;;;;;12.90;2.15;;;19.10;92.50;;;;;;4982370;28;20115;-78
2022/08/28 07:53:19;;;;;;;9.50;2.50;;;19.20;92.40;;;;;;4965622;28;20458;-78
2022/08/28 07:55:45;;;;;;;9.15;2.10;;;19.40;92.30;;;;;;4968715;28;20045;-78
2022/08/28 07:58:12;;;;;;;10.07;2.53;;;19.60;91.60;;;;;;4955637;28;20089;-78
2022/08/28 08:00:37;;;;;;;7.38;2.17;;;19.70;92.10;;;;;;4964197;28;20030;-78
2022/08/28 08:03:03;;;;;;;10.15;2.80;;;19.90;91.40;;;;;;4981567;28;20038;-77
2022/08/28 08:05:29;;;;;;;12.88;2.75;;;20.10;92.10;;;;;;4959697;28;20026;-79
2022/08/28 08:07:55;;;;;;;17.08;2.85;;;20.30;91.10;;;;;;4980787;28;20485;-77
2022/08/28 08:10:21;;;;;;;11.73;2.38;;;20.50;91.70;;;;;;4983710;28;20037;-77
2022/08/28 08:12:47;;;;;;;12.23;2.50;;;20.80;91.10;;;;;;4969092;28;20046;-77
2022/08/28 08:15:13;;;;;;;12.10;2.53;;;20.90;90.30;;;;;;4963821;28;20066;-77
2022/08/28 08:17:38;;;;;;;6.55;2.13;;;21.00;90.20;;;;;;4957347;28;20077;-77
2022/08/28 08:20:06;;;;;;;11.57;2.63;;;21.00;90.20;;;;;;4976137;28;20033;-77
2022/08/28 08:22:32;;;;;;;7.18;2.28;;;21.20;89.80;;;;;;4979457;28;20410;-78
2022/08/28 08:24:57;;;;;;;11.02;2.40;;;21.20;88.20;;;;;;4945134;28;20421;-78
2022/08/28 08:27:23;;;;;;;12.88;2.60;;;21.20;88.10;;;;;;4966984;28;20113;-78
2022/08/28 08:29:49;;;;;;;7.35;2.40;;;21.20;88.50;;;;;;4983712;28;20038;-78
2022/08/28 08:32:16;;;;;;;10.38;2.05;;;21.30;85.90;;;;;;4983228;28;20324;-77
2022/08/28 08:34:44;;;;;;;7.80;2.20;;;21.10;87.00;;;;;;4955416;28;20073;-77
2022/08/28 08:37:12;;;;;;;8.35;2.38;;;21.20;85.10;;;;;;4972097;28;20040;-77
2022/08/28 08:39:38;;;;;;;9.02;2.17;;;21.20;84.00;;;;;;4980915;28;20022;-78
2022/08/28 08:42:06;;;;;;;6.10;2.42;;;21.10;84.10;;;;;;4964608;28;20037;-77
2022/08/28 08:44:35;;;;;;;9.88;2.88;;;21.20;83.60;;;;;;4967778;28;20030;-78
2022/08/28 08:47:06;;;;;;;7.70;2.30;;;21.30;82.50;;;;;;4971737;28;20063;-77
2022/08/28 08:49:34;;;;;;;7.82;2.20;;;21.30;82.30;;;;;;4963255;28;20031;-78
2022/08/28 08:52:28;;;;;;;8.10;2.70;;;21.20;82.40;;;;;;4982146;28;20029;-79
2022/08/28 08:55:02;;;;;;;8.18;2.47;;;21.40;81.50;;;;;;4987769;28;20034;-79
2022/08/28 08:57:28;;;;;;;7.78;2.35;;;21.30;79.90;;;;;;4951732;28;20518;-78
2022/08/28 08:59:54;;;;;;;8.45;2.50;;;21.40;80.50;;;;;;4968654;28;20050;-78
2022/08/28 09:02:21;;;;;;;11.77;2.53;;;21.40;80.10;;;;;;4971992;28;20045;-77
2022/08/28 09:05:06;;;;;;;8.40;2.22;;;21.40;79.10;;;;;;4971024;28;20112;-78
2022/08/28 09:07:38;;;;;;;8.00;2.10;;;21.40;80.10;;;;;;4970537;28;20072;-78
2022/08/28 09:10:05;;;;;;;8.88;2.53;;;21.60;79.50;;;;;;4997373;28;20038;-78
2022/08/28 09:12:39;;;;;;;6.85;2.40;;;21.70;79.20;;;;;;4968932;28;20030;-79
2022/08/28 09:15:15;;;;;;;10.48;2.53;;;21.80;80.10;;;;;;4968188;28;20057;-78
2022/08/28 09:18:14;;;;;;;6.95;1.88;;;21.90;78.20;;;;;;4981353;28;20751;-78
2022/08/28 09:20:40;;;;;;;5.05;1.98;;;21.90;76.80;;;;;;4950779;28;20026;-79
2022/08/28 09:23:06;;;;;;;12.13;3.03;;;21.70;75.10;;;;;;4954025;28;20085;-79
2022/08/28 09:25:47;;;;;;;5.53;2.20;;;21.80;75.50;;;;;;4983572;28;20668;-79
2022/08/28 09:28:23;;;;;;;13.30;2.45;;;21.90;74.10;;;;;;4983469;28;20034;-78
2022/08/28 09:31:03;;;;;;;7.15;2.20;;;21.70;75.00;;;;;;4973304;28;20053;-79
2022/08/28 09:33:40;;;;;;;5.53;2.20;;;21.90;74.00;;;;;;4939561;28;20037;-80
2022/08/28 09:36:35;;;;;;;11.95;2.55;;;22.00;73.90;;;;;;4982552;28;20429;-80
2022/08/28 09:39:13;;;;;;;7.10;2.08;;;22.00;73.00;;;;;;4966754;28;20057;-81
2022/08/28 09:45:02;;;;;;;7.47;2.50;;;22.00;73.20;;;;;;4987480;28;20141;-81
2022/08/28 09:47:50;;;;;;;6.43;1.92;;;22.00;73.30;;;;;;4986943;28;20489;-81
2022/08/28 09:50:35;;;;;;;11.02;2.25;;;22.00;74.50;;;;;;4984877;28;20042;-80
2022/08/28 09:53:10;;;;;;;15.05;2.42;;;21.90;74.90;;;;;;4954110;28;20580;-80
2022/08/28 09:55:44;;;;;;;11.10;2.67;;;21.90;73.50;;;;;;4982273;28;20095;-81
2022/08/28 09:58:10;;;;;;;5.90;2.38;;;22.00;73.20;;;;;;4987074;28;20038;-78
2022/08/28 10:00:38;;;;;;;6.75;2.28;;;22.00;72.70;;;;;;4968039;28;20041;-79
2022/08/28 10:03:26;;;;;;;8.80;2.00;;;22.00;74.50;;;;;;4948242;28;20480;-78
2022/08/28 10:06:08;;;;;;;6.07;2.15;;;22.10;73.80;;;;;;4978635;28;20040;-80
2022/08/28 10:08:45;;;;;;;13.32;2.28;;;22.20;71.40;;;;;;4964507;28;20199;-79
2022/08/28 10:11:22;;;;;;;6.95;1.88;;;22.30;72.00;;;;;;4997854;28;20038;-80
2022/08/28 10:13:58;;;;;;;5.55;1.63;;;22.30;72.20;;;;;;4985035;28;20080;-79
2022/08/28 10:16:57;;;;;;;11.13;3.05;;;22.40;73.00;;;;;;4987017;28;20045;-78
2022/08/28 10:19:43;;;;;;;6.03;2.08;;;22.50;71.20;;;;;;4986086;28;20454;-79
2022/08/28 10:22:55;;;;;;;6.20;1.88;;;22.50;70.10;;;;;;4970278;28;20038;-78
2022/08/28 10:25:37;;;;;;;6.95;2.00;;;22.70;71.10;;;;;;4978652;28;20037;-79
2022/08/28 10:28:24;;;;;;;5.22;2.20;;;22.80;68.90;;;;;;4977937;28;20038;-80
2022/08/28 10:31:14;;;;;;;5.88;2.35;;;22.90;69.00;;;;;;4985457;28;20482;-80
2022/08/28 10:33:58;;;;;;;7.78;2.35;;;22.90;68.50;;;;;;4994679;28;20043;-79
2022/08/28 10:36:32;;;;;;;5.47;2.47;;;23.10;70.90;;;;;;4990779;28;20151;-79
2022/08/28 10:39:13;;;;;;;6.50;1.60;;;23.30;68.40;;;;;;4959819;28;20030;-79
2022/08/28 10:41:46;;;;;;;6.85;2.22;;;23.30;67.70;;;;;;4974256;28;20060;-81
2022/08/28 10:44:16;;;;;;;7.93;2.15;;;23.30;68.50;;;;;;4988890;28;20095;-79
2022/08/28 10:46:45;;;;;;;10.13;2.25;;;23.50;70.50;;;;;;4976103;28;20056;-79
2022/08/28 10:49:13;;;;;;;5.45;2.28;;;23.60;67.60;;;;;;4954060;28;20046;-79
2022/08/28 10:51:49;;;;;;;9.60;2.22;;;23.80;68.30;;;;;;5001840;28;20053;-79
2022/08/28 10:54:36;;;;;;;6.78;1.88;;;23.90;68.10;;;;;;4961268;28;20038;-79
2022/08/28 10:57:17;;;;;;;4.75;1.60;;;24.20;67.00;;;;;;4983372;28;20029;-80
2022/08/28 10:59:43;;;;;;;8.07;1.75;;;24.20;66.90;;;;;;4984576;28;20048;-79
2022/08/28 11:02:09;;;;;;;7.07;1.92;;;24.20;64.70;;;;;;4949626;28;20039;-80
2022/08/28 11:04:35;;;;;;;6.18;1.75;;;24.20;63.50;;;;;;4971884;28;20188;-80
2022/08/28 11:07:08;;;;;;;4.60;1.90;;;24.20;64.00;;;;;;4974899;28;20482;-80
2022/08/28 11:09:44;;;;;;;6.25;1.88;;;24.20;66.20;;;;;;4957331;28;20038;-80
2022/08/28 11:12:16;;;;;;;5.57;1.98;;;24.40;64.90;;;;;;4954539;28;20045;-80
2022/08/28 11:14:43;;;;;;;20.40;3.45;;;24.50;65.00;;;;;;4991342;28;20366;-80
2022/08/28 11:17:10;;;;;;;7.28;2.15;;;24.50;63.00;;;;;;4965263;28;20038;-80
2022/08/28 11:20:00;;;;;;;8.45;1.80;;;24.60;65.60;;;;;;4982908;28;20041;-80
2022/08/28 11:22:33;;;;;;;6.30;2.35;;;24.60;64.00;;;;;;4967843;28;20034;-81
2022/08/28 11:25:01;;;;;;;5.10;1.98;;;24.60;62.90;;;;;;4966496;28;20491;-80
2022/08/28 11:27:32;;;;;;;3.60;1.95;;;24.70;62.50;;;;;;4994521;28;20025;-81
2022/08/28 11:30:09;;;;;;;4.35;1.83;;;25.00;68.40;;;;;;4968178;28;20063;-80
2022/08/28 11:32:39;;;;;;;4.30;2.17;;;25.30;65.30;;;;;;4984376;28;20049;-82
2022/08/28 11:35:26;;;;;;;4.53;1.58;;;25.20;63.50;;;;;;4987031;28;20116;-81
2022/08/28 11:37:53;;;;;;;5.82;1.80;;;25.20;62.90;;;;;;5003977;28;20042;-81
2022/08/28 11:40:31;;;;;;;9.10;1.63;;;25.20;61.50;;;;;;4973074;28;20105;-81
2022/08/28 11:43:26;;;;;;;3.70;1.67;;;25.20;61.50;;;;;;4985912;28;20486;-81
2022/08/28 11:46:32;;;;;;;8.57;2.20;;;25.30;59.10;;;;;;4987354;28;20537;-81
2022/08/28 11:48:59;;;;;;;9.27;1.90;;;25.30;59.30;;;;;;4984747;28;20123;-81
2022/08/28 11:52:06;;;;;;;12.02;2.83;;;25.30;59.40;;;;;;4949843;28;20038;-82
2022/08/28 11:55:10;;;;;;;15.75;2.33;;;25.30;59.20;;;;;;4967801;28;20031;-82
2022/08/28 11:58:10;;;;;;;5.35;1.50;;;25.30;59.20;;;;;;4945840;28;20042;-82
2022/08/28 12:01:06;;;;;;;5.50;2.65;;;25.30;58.60;;;;;;4990256;28;20034;-82
2022/08/28 12:03:43;;;;;;;3.90;1.80;;;25.30;58.10;;;;;;4956752;28;20502;-82
2022/08/28 12:06:09;;;;;;;6.38;1.55;;;25.50;58.60;;;;;;4969654;28;20260;-82
2022/08/28 12:08:47;;;;;;;6.85;1.60;;;25.50;57.90;;;;;;4970823;28;20553;-83
2022/08/28 12:11:40;;;;;;;4.28;1.60;;;25.80;59.80;;;;;;4983647;28;20406;-82
2022/08/28 12:14:24;;;;;;;4.32;2.03;;;25.80;58.80;;;;;;4994569;28;20038;-83
2022/08/28 12:17:06;;;;;;;6.47;1.88;;;25.90;59.70;;;;;;4996777;28;20034;-83
2022/08/28 12:19:48;;;;;;;6.72;2.22;;;26.10;58.70;;;;;;4990214;28;20571;-83
2022/08/28 12:22:19;;;;;;;5.50;2.00;;;26.20;58.60;;;;;;4985929;28;20033;-82
2022/08/28 12:25:14;;;;;;;6.18;2.20;;;26.20;57.00;;;;;;4958607;28;20095;-83
2022/08/28 12:27:40;;;;;;;6.00;1.80;;;26.20;57.50;;;;;;4964471;28;20038;-82
2022/08/28 12:30:06;;;;;;;6.95;1.60;;;26.40;56.40;;;;;;4944676;28;20038;-82
2022/08/28 12:32:45;;;;;;;9.52;1.75;;;26.40;56.00;;;;;;4984145;28;20516;-83
2022/08/28 12:35:13;;;;;;;4.10;1.90;;;26.20;55.80;;;;;;4959709;28;20035;-82
2022/08/28 12:38:02;;;;;;;5.13;1.45;;;26.20;55.80;;;;;;4990362;28;20041;-83
2022/08/28 12:40:49;;;;;;;4.05;1.63;;;26.60;60.30;;;;;;4285551;28;10000649;-82
2022/08/28 12:43:37;;;;;;;4.72;1.83;;;26.80;58.10;;;;;;4970580;28;20088;-81
2022/08/28 12:46:05;;;;;;;3.55;1.92;;;26.70;57.70;;;;;;4967956;28;20037;-83
2022/08/28 12:48:46;;;;;;;5.45;1.90;;;26.60;55.90;;;;;;4967287;28;20045;-82
2022/08/28 12:51:13;;;;;;;5.38;1.70;;;26.60;56.30;;;;;;4970681;28;20052;-82
2022/08/28 12:53:46;;;;;;;3.15;1.30;;;27.20;59.60;;;;;;4972782;28;20047;-85
2022/08/28 12:56:13;;;;;;;5.05;1.60;;;27.80;56.70;;;;;;4986660;28;20056;-84
2022/08/28 12:58:40;;;;;;;6.88;1.48;;;27.30;56.60;;;;;;4983378;28;20397;-83
2022/08/28 13:01:22;;;;;;;5.47;1.60;;;26.90;53.80;;;;;;4955881;28;20512;-84
2022/08/28 13:03:51;;;;;;;4.88;1.50;;;26.90;54.70;;;;;;4954855;28;20034;-83
2022/08/28 13:06:28;;;;;;;7.30;1.42;;;26.90;53.80;;;;;;4951472;28;20114;-83